sensor_id;sensor_type;location;lat;lon;timestamp;temperature;humidity
18252;DHT22;26917;52.328;20.878;2023-03-02T00:01:47;-1.20;99.90
18252;DHT22;26917;52.328;20.878;2023-03-02T00:04:18;-1.20;99.90
18252;DHT22;26917;52.328;20.878;2023-03-02T00:06:49;-1.40;99.90
18252;DHT22;26917;52.328;20.878;2023-03-02T00:09:18;-1.40;99.90
18252;DHT22;26917;52.328;20.878;2023-03-02T00:11:46;-1.20;99.90
18252;DHT22;26917;52.328;20.878;2023-03-02T00:14:15;-1.30;99.90
18252;DHT22;26917;52.328;20.878;2023-03-02T00:16:44;-0.50;99.90
18252;DHT22;26917;52.328;20.878;2023-03-02T00:19:13;-1.40;99.90
18252;DHT22;26917;52.328;20.878;2023-03-02T00:21:41;-1.00;99.90
18252;DHT22;26917;52.328;20.878;2023-03-02T00:24:10;-1.30;99.90
18252;DHT22;26917;52.328;20.878;2023-03-02T00:26:41;-1.30;99.90
18252;DHT22;26917;52.328;20.878;2023-03-02T00:29:10;-1.20;99.90
18252;DHT22;26917;52.328;20.878;2023-03-02T00:31:38;-1.70;99.90
18252;DHT22;26917;52.328;20.878;2023-03-02T00:34:08;0.30;99.90
18252;DHT22;26917;52.328;20.878;2023-03-02T00:36:37;-1.30;99.90
18252;DHT22;26917;52.328;20.878;2023-03-02T00:39:06;-1.40;99.90
18252;DHT22;26917;52.328;20.878;2023-03-02T00:41:34;-1.00;99.90
18252;DHT22;26917;52.328;20.878;2023-03-02T00:44:02;-1.60;99.90
18252;DHT22;26917;52.328;20.878;2023-03-02T00:46:31;-1.70;99.90
18252;DHT22;26917;52.328;20.878;2023-03-02T00:49:00;-1.70;99.90
18252;DHT22;26917;52.328;20.878;2023-03-02T00:51:29;-1.70;99.90
18252;DHT22;26917;52.328;20.878;2023-03-02T00:53:58;-1.60;99.90
18252;DHT22;26917;52.328;20.878;2023-03-02T00:56:28;-1.60;99.90
18252;DHT22;26917;52.328;20.878;2023-03-02T00:58:57;-1.70;99.90
18252;DHT22;26917;52.328;20.878;2023-03-02T01:01:25;-1.00;99.90
18252;DHT22;26917;52.328;20.878;2023-03-02T01:03:54;-1.50;99.90
18252;DHT22;26917;52.328;20.878;2023-03-02T01:06:22;-1.40;99.90
18252;DHT22;26917;52.328;20.878;2023-03-02T01:08:52;-2.20;99.90
18252;DHT22;26917;52.328;20.878;2023-03-02T01:11:22;-1.80;99.90
18252;DHT22;26917;52.328;20.878;2023-03-02T01:13:50;-1.30;99.90
18252;DHT22;26917;52.328;20.878;2023-03-02T01:16:18;-1.50;99.90
18252;DHT22;26917;52.328;20.878;2023-03-02T01:18:47;-1.70;99.90
18252;DHT22;26917;52.328;20.878;2023-03-02T01:21:15;-1.70;99.90
18252;DHT22;26917;52.328;20.878;2023-03-02T01:23:43;-1.80;99.90
18252;DHT22;26917;52.328;20.878;2023-03-02T01:26:13;-1.60;99.90
18252;DHT22;26917;52.328;20.878;2023-03-02T01:28:41;-1.40;99.90
18252;DHT22;26917;52.328;20.878;2023-03-02T01:31:10;-1.90;99.90
18252;DHT22;26917;52.328;20.878;2023-03-02T01:33:38;-2.50;99.90
18252;DHT22;26917;52.328;20.878;2023-03-02T01:36:07;-1.70;99.90
18252;DHT22;26917;52.328;20.878;2023-03-02T01:38:35;-2.00;99.90
18252;DHT22;26917;52.328;20.878;2023-03-02T01:41:04;-2.00;99.90
18252;DHT22;26917;52.328;20.878;2023-03-02T01:43:34;-2.10;99.90
18252;DHT22;26917;52.328;20.878;2023-03-02T01:46:04;-2.20;99.90
18252;DHT22;26917;52.328;20.878;2023-03-02T01:48:45;-0.70;99.90
18252;DHT22;26917;52.328;20.878;2023-03-02T01:51:21;-1.70;99.90
18252;DHT22;26917;52.328;20.878;2023-03-02T01:53:53;-1.60;99.90
18252;DHT22;26917;52.328;20.878;2023-03-02T01:56:27;-1.60;99.90
18252;DHT22;26917;52.328;20.878;2023-03-02T01:59:02;-1.40;99.90
18252;DHT22;26917;52.328;20.878;2023-03-02T02:01:34;-1.50;99.90
18252;DHT22;26917;52.328;20.878;2023-03-02T02:04:04;-1.50;99.90
18252;DHT22;26917;52.328;20.878;2023-03-02T02:06:36;-1.10;99.90
18252;DHT22;26917;52.328;20.878;2023-03-02T02:09:08;0.00;99.90
18252;DHT22;26917;52.328;20.878;2023-03-02T02:11:37;-1.30;99.90
18252;DHT22;26917;52.328;20.878;2023-03-02T02:14:07;-1.30;99.90
18252;DHT22;26917;52.328;20.878;2023-03-02T02:16:36;-1.40;99.90
18252;DHT22;26917;52.328;20.878;2023-03-02T02:19:09;-1.20;99.90
18252;DHT22;26917;52.328;20.878;2023-03-02T02:21:39;-1.20;99.90
18252;DHT22;26917;52.328;20.878;2023-03-02T02:24:10;-1.40;99.90
18252;DHT22;26917;52.328;20.878;2023-03-02T02:26:43;-0.90;99.90
18252;DHT22;26917;52.328;20.878;2023-03-02T02:29:15;-1.00;99.90
18252;DHT22;26917;52.328;20.878;2023-03-02T02:31:53;-1.10;99.90
18252;DHT22;26917;52.328;20.878;2023-03-02T02:34:26;-0.50;99.90
18252;DHT22;26917;52.328;20.878;2023-03-02T02:36:58;-0.90;99.90
18252;DHT22;26917;52.328;20.878;2023-03-02T02:39:31;-0.60;99.90
18252;DHT22;26917;52.328;20.878;2023-03-02T02:42:05;-0.90;99.90
18252;DHT22;26917;52.328;20.878;2023-03-02T02:44:34;-0.80;99.90
18252;DHT22;26917;52.328;20.878;2023-03-02T02:47:04;-0.90;99.90
18252;DHT22;26917;52.328;20.878;2023-03-02T02:49:36;-1.50;99.90
18252;DHT22;26917;52.328;20.878;2023-03-02T02:52:06;-0.80;99.90
18252;DHT22;26917;52.328;20.878;2023-03-02T02:54:35;-0.80;99.90
18252;DHT22;26917;52.328;20.878;2023-03-02T02:57:06;-1.20;99.90
18252;DHT22;26917;52.328;20.878;2023-03-02T02:59:37;-0.50;99.90
18252;DHT22;26917;52.328;20.878;2023-03-02T03:02:16;-0.90;99.90
18252;DHT22;26917;52.328;20.878;2023-03-02T03:04:45;-0.80;99.90
18252;DHT22;26917;52.328;20.878;2023-03-02T03:07:18;-0.70;99.90
18252;DHT22;26917;52.328;20.878;2023-03-02T03:09:52;-0.70;99.90
18252;DHT22;26917;52.328;20.878;2023-03-02T03:12:25;-0.70;99.90
18252;DHT22;26917;52.328;20.878;2023-03-02T03:14:54;-0.60;99.90
18252;DHT22;26917;52.328;20.878;2023-03-02T03:17:22;-0.60;99.90
18252;DHT22;26917;52.328;20.878;2023-03-02T03:19:56;-0.60;99.90
18252;DHT22;26917;52.328;20.878;2023-03-02T03:22:36;-0.60;99.90
18252;DHT22;26917;52.328;20.878;2023-03-02T03:25:07;-0.50;99.90
18252;DHT22;26917;52.328;20.878;2023-03-02T03:27:37;-0.50;99.90
18252;DHT22;26917;52.328;20.878;2023-03-02T03:30:06;-0.40;99.90
18252;DHT22;26917;52.328;20.878;2023-03-02T03:32:35;-0.40;99.90
18252;DHT22;26917;52.328;20.878;2023-03-02T03:35:05;-0.20;99.90
18252;DHT22;26917;52.328;20.878;2023-03-02T03:37:35;-0.30;99.90
18252;DHT22;26917;52.328;20.878;2023-03-02T03:40:05;-0.30;99.90
18252;DHT22;26917;52.328;20.878;2023-03-02T03:42:38;-0.20;99.90
18252;DHT22;26917;52.328;20.878;2023-03-02T03:45:07;-0.60;99.90
18252;DHT22;26917;52.328;20.878;2023-03-02T03:47:37;-0.20;99.90
18252;DHT22;26917;52.328;20.878;2023-03-02T03:50:08;-0.60;99.90
18252;DHT22;26917;52.328;20.878;2023-03-02T03:52:38;-0.10;99.90
18252;DHT22;26917;52.328;20.878;2023-03-02T03:55:27;-0.30;99.90
18252;DHT22;26917;52.328;20.878;2023-03-02T03:57:58;-0.10;99.90
18252;DHT22;26917;52.328;20.878;2023-03-02T04:00:26;0.30;99.90
18252;DHT22;26917;52.328;20.878;2023-03-02T04:03:01;0.00;99.90
18252;DHT22;26917;52.328;20.878;2023-03-02T04:05:31;0.00;99.90
18252;DHT22;26917;52.328;20.878;2023-03-02T04:08:01;0.20;99.90
18252;DHT22;26917;52.328;20.878;2023-03-02T04:10:30;0.00;99.90
18252;DHT22;26917;52.328;20.878;2023-03-02T04:13:01;0.00;99.90
18252;DHT22;26917;52.328;20.878;2023-03-02T04:15:30;-0.50;99.90
18252;DHT22;26917;52.328;20.878;2023-03-02T04:17:59;0.00;99.90
18252;DHT22;26917;52.328;20.878;2023-03-02T04:20:29;0.00;99.90
18252;DHT22;26917;52.328;20.878;2023-03-02T04:22:58;0.00;99.90
18252;DHT22;26917;52.328;20.878;2023-03-02T04:25:28;-0.30;99.90
18252;DHT22;26917;52.328;20.878;2023-03-02T04:28:09;-0.50;99.90
18252;DHT22;26917;52.328;20.878;2023-03-02T04:30:39;-0.20;99.90
18252;DHT22;26917;52.328;20.878;2023-03-02T04:33:07;-0.10;99.90
18252;DHT22;26917;52.328;20.878;2023-03-02T04:35:36;0.10;99.90
18252;DHT22;26917;52.328;20.878;2023-03-02T04:38:04;-0.10;99.90
18252;DHT22;26917;52.328;20.878;2023-03-02T04:40:33;0.10;99.90
18252;DHT22;26917;52.328;20.878;2023-03-02T04:43:01;0.90;99.90
18252;DHT22;26917;52.328;20.878;2023-03-02T04:45:31;0.00;99.90
18252;DHT22;26917;52.328;20.878;2023-03-02T04:47:59;-0.20;99.90
18252;DHT22;26917;52.328;20.878;2023-03-02T04:50:27;-0.20;99.90
18252;DHT22;26917;52.328;20.878;2023-03-02T04:52:56;-0.20;99.90
18252;DHT22;26917;52.328;20.878;2023-03-02T04:55:25;0.30;99.90
18252;DHT22;26917;52.328;20.878;2023-03-02T04:57:53;0.30;99.90
18252;DHT22;26917;52.328;20.878;2023-03-02T05:00:22;0.10;99.90
18252;DHT22;26917;52.328;20.878;2023-03-02T05:02:52;0.60;99.90
18252;DHT22;26917;52.328;20.878;2023-03-02T05:05:22;-0.20;99.90
18252;DHT22;26917;52.328;20.878;2023-03-02T05:07:51;-0.10;99.90
18252;DHT22;26917;52.328;20.878;2023-03-02T05:10:22;0.00;99.90
18252;DHT22;26917;52.328;20.878;2023-03-02T05:12:51;0.10;99.90
18252;DHT22;26917;52.328;20.878;2023-03-02T05:15:26;0.20;99.90
18252;DHT22;26917;52.328;20.878;2023-03-02T05:17:56;0.60;99.90
18252;DHT22;26917;52.328;20.878;2023-03-02T05:20:25;0.10;99.90
18252;DHT22;26917;52.328;20.878;2023-03-02T05:22:57;0.10;99.90
18252;DHT22;26917;52.328;20.878;2023-03-02T05:25:28;1.00;99.90
18252;DHT22;26917;52.328;20.878;2023-03-02T05:27:57;0.20;99.90
18252;DHT22;26917;52.328;20.878;2023-03-02T05:30:26;0.00;99.90
18252;DHT22;26917;52.328;20.878;2023-03-02T05:32:55;0.20;99.90
18252;DHT22;26917;52.328;20.878;2023-03-02T05:35:24;-0.10;99.90
18252;DHT22;26917;52.328;20.878;2023-03-02T05:37:53;0.20;99.90
18252;DHT22;26917;52.328;20.878;2023-03-02T05:40:21;1.20;99.90
18252;DHT22;26917;52.328;20.878;2023-03-02T05:42:49;0.30;99.90
18252;DHT22;26917;52.328;20.878;2023-03-02T05:45:21;0.20;99.90
18252;DHT22;26917;52.328;20.878;2023-03-02T05:47:50;0.30;99.90
18252;DHT22;26917;52.328;20.878;2023-03-02T05:50:20;0.30;99.90
18252;DHT22;26917;52.328;20.878;2023-03-02T05:52:48;0.70;99.90
18252;DHT22;26917;52.328;20.878;2023-03-02T05:55:18;-0.10;99.90
18252;DHT22;26917;52.328;20.878;2023-03-02T05:57:46;-0.10;99.90
18252;DHT22;26917;52.328;20.878;2023-03-02T06:00:16;0.30;99.90
18252;DHT22;26917;52.328;20.878;2023-03-02T06:02:45;0.30;99.90
18252;DHT22;26917;52.328;20.878;2023-03-02T06:05:16;0.80;99.90
18252;DHT22;26917;52.328;20.878;2023-03-02T06:07:45;0.40;99.90
18252;DHT22;26917;52.328;20.878;2023-03-02T06:10:14;1.30;99.90
18252;DHT22;26917;52.328;20.878;2023-03-02T06:12:42;0.40;99.90
18252;DHT22;26917;52.328;20.878;2023-03-02T06:15:17;0.40;99.90
18252;DHT22;26917;52.328;20.878;2023-03-02T06:17:48;1.40;99.90
18252;DHT22;26917;52.328;20.878;2023-03-02T06:20:16;0.50;99.90
18252;DHT22;26917;52.328;20.878;2023-03-02T06:22:46;0.40;99.90
18252;DHT22;26917;52.328;20.878;2023-03-02T06:25:16;1.10;99.90
18252;DHT22;26917;52.328;20.878;2023-03-02T06:27:45;0.40;99.90
18252;DHT22;26917;52.328;20.878;2023-03-02T06:30:18;0.50;99.90
18252;DHT22;26917;52.328;20.878;2023-03-02T06:32:47;0.50;99.90
18252;DHT22;26917;52.328;20.878;2023-03-02T06:35:16;0.40;99.90
18252;DHT22;26917;52.328;20.878;2023-03-02T06:37:46;0.50;99.90
18252;DHT22;26917;52.328;20.878;2023-03-02T06:40:14;1.00;99.90
18252;DHT22;26917;52.328;20.878;2023-03-02T06:42:43;0.60;99.90
18252;DHT22;26917;52.328;20.878;2023-03-02T06:45:11;0.00;99.90
18252;DHT22;26917;52.328;20.878;2023-03-02T06:47:40;0.50;99.90
18252;DHT22;26917;52.328;20.878;2023-03-02T06:50:09;0.10;99.90
18252;DHT22;26917;52.328;20.878;2023-03-02T06:52:38;0.50;99.90
18252;DHT22;26917;52.328;20.878;2023-03-02T06:55:08;0.60;99.90
18252;DHT22;26917;52.328;20.878;2023-03-02T06:57:37;0.60;99.90
18252;DHT22;26917;52.328;20.878;2023-03-02T07:00:07;0.60;99.90
18252;DHT22;26917;52.328;20.878;2023-03-02T07:02:37;0.70;99.90
18252;DHT22;26917;52.328;20.878;2023-03-02T07:05:06;0.60;99.90
18252;DHT22;26917;52.328;20.878;2023-03-02T07:07:34;0.70;99.90
18252;DHT22;26917;52.328;20.878;2023-03-02T07:10:03;0.80;99.90
18252;DHT22;26917;52.328;20.878;2023-03-02T07:12:33;0.70;99.90
18252;DHT22;26917;52.328;20.878;2023-03-02T07:15:02;0.70;99.90
18252;DHT22;26917;52.328;20.878;2023-03-02T07:17:32;0.80;99.90
18252;DHT22;26917;52.328;20.878;2023-03-02T07:20:01;0.90;99.90
18252;DHT22;26917;52.328;20.878;2023-03-02T07:22:31;0.80;99.90
18252;DHT22;26917;52.328;20.878;2023-03-02T07:25:00;0.80;99.90
18252;DHT22;26917;52.328;20.878;2023-03-02T07:27:28;0.20;99.90
18252;DHT22;26917;52.328;20.878;2023-03-02T07:29:58;0.30;99.90
18252;DHT22;26917;52.328;20.878;2023-03-02T07:32:26;0.70;99.90
18252;DHT22;26917;52.328;20.878;2023-03-02T07:34:55;0.50;99.90
18252;DHT22;26917;52.328;20.878;2023-03-02T07:37:23;0.80;99.90
18252;DHT22;26917;52.328;20.878;2023-03-02T07:39:51;2.00;99.90
18252;DHT22;26917;52.328;20.878;2023-03-02T07:42:20;0.90;99.90
18252;DHT22;26917;52.328;20.878;2023-03-02T07:44:53;1.60;99.90
18252;DHT22;26917;52.328;20.878;2023-03-02T07:47:23;1.00;99.90
18252;DHT22;26917;52.328;20.878;2023-03-02T07:49:52;0.60;99.90
18252;DHT22;26917;52.328;20.878;2023-03-02T07:52:20;1.00;99.90
18252;DHT22;26917;52.328;20.878;2023-03-02T07:54:48;1.70;99.90
18252;DHT22;26917;52.328;20.878;2023-03-02T07:57:17;1.00;99.90
18252;DHT22;26917;52.328;20.878;2023-03-02T07:59:45;0.90;99.90
18252;DHT22;26917;52.328;20.878;2023-03-02T08:02:15;1.50;99.90
18252;DHT22;26917;52.328;20.878;2023-03-02T08:04:45;1.70;99.90
18252;DHT22;26917;52.328;20.878;2023-03-02T08:07:13;1.40;99.90
18252;DHT22;26917;52.328;20.878;2023-03-02T08:09:42;1.80;99.90
18252;DHT22;26917;52.328;20.878;2023-03-02T08:12:10;1.40;99.90
18252;DHT22;26917;52.328;20.878;2023-03-02T08:14:38;0.80;99.90
18252;DHT22;26917;52.328;20.878;2023-03-02T08:17:07;0.70;99.90
18252;DHT22;26917;52.328;20.878;2023-03-02T08:19:36;0.40;99.90
18252;DHT22;26917;52.328;20.878;2023-03-02T08:22:05;2.30;99.90
18252;DHT22;26917;52.328;20.878;2023-03-02T08:24:34;0.90;99.90
18252;DHT22;26917;52.328;20.878;2023-03-02T08:27:02;1.20;99.90
18252;DHT22;26917;52.328;20.878;2023-03-02T08:29:31;1.20;99.90
18252;DHT22;26917;52.328;20.878;2023-03-02T08:31:59;0.90;99.90
18252;DHT22;26917;52.328;20.878;2023-03-02T08:34:28;0.80;99.90
18252;DHT22;26917;52.328;20.878;2023-03-02T08:36:56;1.00;99.90
18252;DHT22;26917;52.328;20.878;2023-03-02T08:39:26;1.30;99.90
18252;DHT22;26917;52.328;20.878;2023-03-02T08:41:57;1.00;99.90
18252;DHT22;26917;52.328;20.878;2023-03-02T08:44:25;1.30;99.90
18252;DHT22;26917;52.328;20.878;2023-03-02T08:46:54;0.70;99.90
18252;DHT22;26917;52.328;20.878;2023-03-02T08:49:22;2.20;99.90
18252;DHT22;26917;52.328;20.878;2023-03-02T08:51:50;1.30;99.90
18252;DHT22;26917;52.328;20.878;2023-03-02T08:54:22;1.20;99.90
18252;DHT22;26917;52.328;20.878;2023-03-02T08:56:52;1.60;99.90
18252;DHT22;26917;52.328;20.878;2023-03-02T08:59:20;0.90;99.90
18252;DHT22;26917;52.328;20.878;2023-03-02T09:01:48;1.50;99.90
18252;DHT22;26917;52.328;20.878;2023-03-02T09:04:17;2.20;99.90
18252;DHT22;26917;52.328;20.878;2023-03-02T09:06:45;1.60;99.90
18252;DHT22;26917;52.328;20.878;2023-03-02T09:09:14;1.70;99.90
18252;DHT22;26917;52.328;20.878;2023-03-02T09:11:42;1.20;99.90
18252;DHT22;26917;52.328;20.878;2023-03-02T09:14:13;1.10;99.90
18252;DHT22;26917;52.328;20.878;2023-03-02T09:16:42;1.70;99.90
18252;DHT22;26917;52.328;20.878;2023-03-02T09:19:12;2.00;99.90
18252;DHT22;26917;52.328;20.878;2023-03-02T09:21:40;1.90;99.90
18252;DHT22;26917;52.328;20.878;2023-03-02T09:24:09;1.70;99.90
18252;DHT22;26917;52.328;20.878;2023-03-02T09:26:37;2.60;99.90
18252;DHT22;26917;52.328;20.878;2023-03-02T09:29:06;1.50;99.90
18252;DHT22;26917;52.328;20.878;2023-03-02T09:31:36;1.60;99.90
18252;DHT22;26917;52.328;20.878;2023-03-02T09:34:05;2.00;99.90
18252;DHT22;26917;52.328;20.878;2023-03-02T09:36:34;1.70;99.90
18252;DHT22;26917;52.328;20.878;2023-03-02T09:39:02;2.40;99.90
18252;DHT22;26917;52.328;20.878;2023-03-02T09:45:05;2.40;99.90
18252;DHT22;26917;52.328;20.878;2023-03-02T09:47:44;2.90;99.90
18252;DHT22;26917;52.328;20.878;2023-03-02T09:50:29;2.80;99.90
18252;DHT22;26917;52.328;20.878;2023-03-02T09:53:13;2.30;99.90
18252;DHT22;26917;52.328;20.878;2023-03-02T09:55:50;2.90;99.90
18252;DHT22;26917;52.328;20.878;2023-03-02T09:58:19;3.10;99.90
18252;DHT22;26917;52.328;20.878;2023-03-02T10:00:50;3.10;99.90
18252;DHT22;26917;52.328;20.878;2023-03-02T10:03:22;3.20;99.90
18252;DHT22;26917;52.328;20.878;2023-03-02T10:05:54;3.50;99.90
18252;DHT22;26917;52.328;20.878;2023-03-02T10:08:24;3.70;99.90
18252;DHT22;26917;52.328;20.878;2023-03-02T10:10:57;3.60;99.90
18252;DHT22;26917;52.328;20.878;2023-03-02T10:13:28;4.40;99.90
18252;DHT22;26917;52.328;20.878;2023-03-02T10:16:11;2.80;99.90
18252;DHT22;26917;52.328;20.878;2023-03-02T10:18:44;3.80;99.90
18252;DHT22;26917;52.328;20.878;2023-03-02T10:21:21;3.60;99.90
18252;DHT22;26917;52.328;20.878;2023-03-02T10:23:54;3.40;99.90
18252;DHT22;26917;52.328;20.878;2023-03-02T10:26:36;3.70;99.90
18252;DHT22;26917;52.328;20.878;2023-03-02T10:29:35;4.40;99.90
18252;DHT22;26917;52.328;20.878;2023-03-02T10:32:16;3.30;99.90
18252;DHT22;26917;52.328;20.878;2023-03-02T10:34:47;3.90;99.90
18252;DHT22;26917;52.328;20.878;2023-03-02T10:37:17;4.30;99.90
18252;DHT22;26917;52.328;20.878;2023-03-02T10:39:47;3.30;99.90
18252;DHT22;26917;52.328;20.878;2023-03-02T10:42:19;3.30;99.90
18252;DHT22;26917;52.328;20.878;2023-03-02T10:44:50;3.80;99.90
18252;DHT22;26917;52.328;20.878;2023-03-02T10:47:22;3.60;99.90
18252;DHT22;26917;52.328;20.878;2023-03-02T10:49:53;4.30;99.90
18252;DHT22;26917;52.328;20.878;2023-03-02T10:52:22;3.90;99.90
18252;DHT22;26917;52.328;20.878;2023-03-02T10:55:01;4.10;99.90
18252;DHT22;26917;52.328;20.878;2023-03-02T10:57:34;4.50;99.90
18252;DHT22;26917;52.328;20.878;2023-03-02T11:00:14;4.40;99.90
18252;DHT22;26917;52.328;20.878;2023-03-02T11:02:53;4.50;99.90
18252;DHT22;26917;52.328;20.878;2023-03-02T11:05:32;4.40;99.90
18252;DHT22;26917;52.328;20.878;2023-03-02T11:08:02;4.90;99.90
18252;DHT22;26917;52.328;20.878;2023-03-02T11:10:32;4.60;99.90
18252;DHT22;26917;52.328;20.878;2023-03-02T11:13:15;4.60;99.90
18252;DHT22;26917;52.328;20.878;2023-03-02T11:15:46;4.50;99.90
18252;DHT22;26917;52.328;20.878;2023-03-02T11:18:22;4.90;99.90
18252;DHT22;26917;52.328;20.878;2023-03-02T11:20:55;4.70;99.90
18252;DHT22;26917;52.328;20.878;2023-03-02T11:23:32;4.30;99.90
18252;DHT22;26917;52.328;20.878;2023-03-02T11:26:06;5.40;99.90
18252;DHT22;26917;52.328;20.878;2023-03-02T11:28:43;4.00;99.90
18252;DHT22;26917;52.328;20.878;2023-03-02T11:31:20;4.10;99.90
18252;DHT22;26917;52.328;20.878;2023-03-02T11:34:00;3.50;99.90
18252;DHT22;26917;52.328;20.878;2023-03-02T11:36:56;4.00;99.90
18252;DHT22;26917;52.328;20.878;2023-03-02T11:39:31;3.80;99.90
18252;DHT22;26917;52.328;20.878;2023-03-02T11:42:27;4.60;99.90
18252;DHT22;26917;52.328;20.878;2023-03-02T11:45:01;3.50;99.90
18252;DHT22;26917;52.328;20.878;2023-03-02T11:47:31;3.50;99.90
18252;DHT22;26917;52.328;20.878;2023-03-02T11:50:02;3.60;99.90
18252;DHT22;26917;52.328;20.878;2023-03-02T11:52:38;3.50;99.90
18252;DHT22;26917;52.328;20.878;2023-03-02T11:55:16;3.40;99.90
18252;DHT22;26917;52.328;20.878;2023-03-02T11:57:48;3.60;99.90
18252;DHT22;26917;52.328;20.878;2023-03-02T12:00:27;3.70;99.90
18252;DHT22;26917;52.328;20.878;2023-03-02T12:03:01;3.80;99.90
18252;DHT22;26917;52.328;20.878;2023-03-02T12:05:31;3.80;99.90
18252;DHT22;26917;52.328;20.878;2023-03-02T12:08:05;3.90;99.90
18252;DHT22;26917;52.328;20.878;2023-03-02T12:10:37;4.90;99.90
18252;DHT22;26917;52.328;20.878;2023-03-02T12:13:14;4.40;99.90
18252;DHT22;26917;52.328;20.878;2023-03-02T12:15:45;4.30;99.90
18252;DHT22;26917;52.328;20.878;2023-03-02T12:18:42;4.80;99.90
18252;DHT22;26917;52.328;20.878;2023-03-02T12:21:14;4.30;99.90
18252;DHT22;26917;52.328;20.878;2023-03-02T12:23:59;3.90;99.90
18252;DHT22;26917;52.328;20.878;2023-03-02T12:26:33;4.40;99.90
18252;DHT22;26917;52.328;20.878;2023-03-02T12:29:06;4.30;99.90
18252;DHT22;26917;52.328;20.878;2023-03-02T12:31:50;4.00;99.90
18252;DHT22;26917;52.328;20.878;2023-03-02T12:34:34;4.50;99.90
18252;DHT22;26917;52.328;20.878;2023-03-02T12:37:10;4.30;99.90
18252;DHT22;26917;52.328;20.878;2023-03-02T12:39:57;4.30;99.90
18252;DHT22;26917;52.328;20.878;2023-03-02T12:42:55;4.50;99.90
18252;DHT22;26917;52.328;20.878;2023-03-02T12:45:39;4.60;99.90
18252;DHT22;26917;52.328;20.878;2023-03-02T12:48:22;4.70;99.90
18252;DHT22;26917;52.328;20.878;2023-03-02T12:50:55;4.20;99.90
18252;DHT22;26917;52.328;20.878;2023-03-02T12:53:26;4.40;99.90
18252;DHT22;26917;52.328;20.878;2023-03-02T12:55:56;5.00;99.90
18252;DHT22;26917;52.328;20.878;2023-03-02T12:58:27;4.70;99.90
18252;DHT22;26917;52.328;20.878;2023-03-02T13:00:57;4.30;99.90
18252;DHT22;26917;52.328;20.878;2023-03-02T13:03:28;4.70;99.90
18252;DHT22;26917;52.328;20.878;2023-03-02T13:06:01;4.80;99.90
18252;DHT22;26917;52.328;20.878;2023-03-02T13:08:31;4.50;99.90
18252;DHT22;26917;52.328;20.878;2023-03-02T13:11:01;4.60;99.90
18252;DHT22;26917;52.328;20.878;2023-03-02T13:13:35;4.60;99.90
18252;DHT22;26917;52.328;20.878;2023-03-02T13:16:16;5.20;99.90
18252;DHT22;26917;52.328;20.878;2023-03-02T13:18:46;4.50;99.90
18252;DHT22;26917;52.328;20.878;2023-03-02T13:21:17;4.60;99.90
18252;DHT22;26917;52.328;20.878;2023-03-02T13:23:49;5.00;99.90
18252;DHT22;26917;52.328;20.878;2023-03-02T13:26:26;4.50;99.90
18252;DHT22;26917;52.328;20.878;2023-03-02T13:29:03;4.60;99.90
18252;DHT22;26917;52.328;20.878;2023-03-02T13:31:33;4.40;99.90
18252;DHT22;26917;52.328;20.878;2023-03-02T13:34:02;4.50;99.90
18252;DHT22;26917;52.328;20.878;2023-03-02T13:36:34;4.30;99.90
18252;DHT22;26917;52.328;20.878;2023-03-02T13:39:06;4.10;99.90
18252;DHT22;26917;52.328;20.878;2023-03-02T13:41:36;4.40;99.90
18252;DHT22;26917;52.328;20.878;2023-03-02T13:44:17;4.50;99.90
18252;DHT22;26917;52.328;20.878;2023-03-02T13:46:47;4.30;99.90
18252;DHT22;26917;52.328;20.878;2023-03-02T13:49:25;4.50;99.90
18252;DHT22;26917;52.328;20.878;2023-03-02T13:52:00;4.40;99.90
18252;DHT22;26917;52.328;20.878;2023-03-02T13:54:35;5.00;99.90
18252;DHT22;26917;52.328;20.878;2023-03-02T13:57:05;4.60;99.90
18252;DHT22;26917;52.328;20.878;2023-03-02T13:59:34;4.30;99.90
18252;DHT22;26917;52.328;20.878;2023-03-02T14:02:15;4.30;99.90
18252;DHT22;26917;52.328;20.878;2023-03-02T14:04:46;4.10;99.90
18252;DHT22;26917;52.328;20.878;2023-03-02T14:07:15;4.90;99.90
18252;DHT22;26917;52.328;20.878;2023-03-02T14:09:44;4.40;99.90
18252;DHT22;26917;52.328;20.878;2023-03-02T14:12:21;4.60;99.90
18252;DHT22;26917;52.328;20.878;2023-03-02T14:14:52;4.40;99.90
18252;DHT22;26917;52.328;20.878;2023-03-02T14:17:23;4.60;99.90
18252;DHT22;26917;52.328;20.878;2023-03-02T14:19:52;4.60;99.90
18252;DHT22;26917;52.328;20.878;2023-03-02T14:22:23;4.60;99.90
18252;DHT22;26917;52.328;20.878;2023-03-02T14:24:52;4.60;99.90
18252;DHT22;26917;52.328;20.878;2023-03-02T14:27:27;4.50;99.90
18252;DHT22;26917;52.328;20.878;2023-03-02T14:29:57;4.50;99.90
18252;DHT22;26917;52.328;20.878;2023-03-02T14:32:25;4.50;99.90
18252;DHT22;26917;52.328;20.878;2023-03-02T14:34:54;4.40;99.90
18252;DHT22;26917;52.328;20.878;2023-03-02T14:37:26;4.40;99.90
18252;DHT22;26917;52.328;20.878;2023-03-02T14:39:55;4.20;99.90
18252;DHT22;26917;52.328;20.878;2023-03-02T14:42:26;4.20;99.90
18252;DHT22;26917;52.328;20.878;2023-03-02T14:44:54;4.20;99.90
18252;DHT22;26917;52.328;20.878;2023-03-02T14:47:24;4.20;99.90
18252;DHT22;26917;52.328;20.878;2023-03-02T14:49:53;4.10;99.90
18252;DHT22;26917;52.328;20.878;2023-03-02T14:52:25;4.10;99.90
18252;DHT22;26917;52.328;20.878;2023-03-02T14:54:59;4.00;99.90
18252;DHT22;26917;52.328;20.878;2023-03-02T14:57:34;4.00;99.90
18252;DHT22;26917;52.328;20.878;2023-03-02T15:00:05;4.00;99.90
18252;DHT22;26917;52.328;20.878;2023-03-02T15:02:33;4.00;99.90
18252;DHT22;26917;52.328;20.878;2023-03-02T15:05:02;4.00;99.90
18252;DHT22;26917;52.328;20.878;2023-03-02T15:07:32;4.00;99.90
18252;DHT22;26917;52.328;20.878;2023-03-02T15:10:01;4.00;99.90
18252;DHT22;26917;52.328;20.878;2023-03-02T15:12:33;3.90;99.90
18252;DHT22;26917;52.328;20.878;2023-03-02T15:15:11;3.90;99.90
18252;DHT22;26917;52.328;20.878;2023-03-02T15:17:40;3.80;99.90
18252;DHT22;26917;52.328;20.878;2023-03-02T15:20:13;3.80;99.90
18252;DHT22;26917;52.328;20.878;2023-03-02T15:22:42;3.70;99.90
18252;DHT22;26917;52.328;20.878;2023-03-02T15:25:10;3.60;99.90
18252;DHT22;26917;52.328;20.878;2023-03-02T15:27:40;3.60;99.90
18252;DHT22;26917;52.328;20.878;2023-03-02T15:30:10;3.50;99.90
18252;DHT22;26917;52.328;20.878;2023-03-02T15:32:39;3.40;99.90
18252;DHT22;26917;52.328;20.878;2023-03-02T15:35:08;3.30;99.90
18252;DHT22;26917;52.328;20.878;2023-03-02T15:37:38;3.10;99.90
18252;DHT22;26917;52.328;20.878;2023-03-02T15:40:08;3.70;99.90
18252;DHT22;26917;52.328;20.878;2023-03-02T15:42:37;2.70;99.90
18252;DHT22;26917;52.328;20.878;2023-03-02T15:45:07;2.50;99.90
18252;DHT22;26917;52.328;20.878;2023-03-02T15:47:36;2.30;99.90
18252;DHT22;26917;52.328;20.878;2023-03-02T15:50:05;2.10;99.90
18252;DHT22;26917;52.328;20.878;2023-03-02T15:52:33;2.00;99.90
18252;DHT22;26917;52.328;20.878;2023-03-02T15:55:02;1.80;99.90
18252;DHT22;26917;52.328;20.878;2023-03-02T15:57:36;1.70;99.90